Terminal Aerodrome Forecast
Issued by NWS

Home | Current Version | Previous Version | Text Only | Print | Product List | Glossary On
Versions: 1 2 3 4 5 6 7 8 9 10 11 12 13 14 15 16 17 18 19 20 21
000
FTAK31 PANC 282340
TAFADQ
TAF
PADQ 282340Z 2900/2924 07007KT P6SM VCSH SCT025 OVC090
     FM290600 VRB04KT P6SM VCSH BKN060
     FM291400 VRB03KT P6SM BKN025
      TEMPO 2920/2924 -SHRA=

USA.gov is the U.S. government's official web portal to all federal, state and local government web resources and services.